createdAt,value
2022-12-26T00:01:28.860Z,185.00
2022-12-26T00:06:30.067Z,157.70
2022-12-26T00:11:28.233Z,69.00
2022-12-26T00:16:26.898Z,65.80
2022-12-26T00:21:26.700Z,57.60
2022-12-26T00:26:24.897Z,71.10
2022-12-26T00:31:26.134Z,32.00
2022-12-26T00:36:22.378Z,76.30
2022-12-26T00:41:22.570Z,49.60
2022-12-26T00:46:23.820Z,83.60
2022-12-26T00:51:21.053Z,40.60
2022-12-26T00:56:20.268Z,33.80
2022-12-26T01:01:20.580Z,29.90
2022-12-26T01:06:18.708Z,30.60
2022-12-26T01:11:17.899Z,53.80
2022-12-26T01:16:17.109Z,24.70
2022-12-26T01:21:16.285Z,137.20
2022-12-26T01:26:20.322Z,73.10
2022-12-26T01:31:15.631Z,243.30
2022-12-26T01:36:13.805Z,143.50
2022-12-26T01:41:12.991Z,199.90
2022-12-26T01:46:12.154Z,167.70
2022-12-26T01:51:11.360Z,226.00
2022-12-26T01:56:10.532Z,209.80
2022-12-26T02:01:10.804Z,216.90
2022-12-26T02:06:09.849Z,213.90
2022-12-26T02:11:08.044Z,158.90
2022-12-26T02:16:07.440Z,80.70
2022-12-26T02:21:07.596Z,112.80
2022-12-26T02:26:06.883Z,107.20
2022-12-26T02:31:05.204Z,105.40
2022-12-26T02:36:03.579Z,81.10
2022-12-26T02:41:04.688Z,83.20
2022-12-26T02:46:04.041Z,97.30
2022-12-26T02:51:02.169Z,83.00
2022-12-26T02:56:01.490Z,80.80
2022-12-26T03:00:59.826Z,85.10
2022-12-26T03:05:59.979Z,70.20
2022-12-26T03:11:00.132Z,64.60
2022-12-26T03:15:58.456Z,46.20
2022-12-26T03:20:56.763Z,48.40
2022-12-26T03:25:59.088Z,76.80
2022-12-26T03:30:57.426Z,55.70
2022-12-26T03:35:55.634Z,36.60
2022-12-26T03:40:54.767Z,40.00
2022-12-26T03:45:56.199Z,28.50
2022-12-26T03:50:52.341Z,30.00
2022-12-26T03:55:52.658Z,36.80
2022-12-26T04:00:51.984Z,24.70
2022-12-26T04:05:52.301Z,21.70
2022-12-26T04:10:50.606Z,22.10
2022-12-26T04:15:49.964Z,18.90
2022-12-26T04:20:49.085Z,19.40
2022-12-26T04:25:51.460Z,24.30
2022-12-26T04:30:46.605Z,14.00
2022-12-26T04:35:47.713Z,13.60
2022-12-26T04:40:47.057Z,14.20
2022-12-26T04:45:45.185Z,14.40
2022-12-26T04:50:44.556Z,10.50
2022-12-26T04:55:43.701Z,10.30
2022-12-26T05:00:42.819Z,8.40
2022-12-26T05:05:44.169Z,8.20
2022-12-26T05:10:42.307Z,7.30
2022-12-26T05:15:41.632Z,7.30
2022-12-26T05:20:39.811Z,6.70
2022-12-26T05:25:39.037Z,9.00
2022-12-26T05:30:38.165Z,7.90
2022-12-26T05:35:37.364Z,6.90
2022-12-26T05:40:37.476Z,6.60
2022-12-26T05:45:36.780Z,4.90
2022-12-26T05:50:35.087Z,4.40
2022-12-26T05:55:36.407Z,5.00
2022-12-26T06:00:34.697Z,4.60
2022-12-26T06:05:33.120Z,4.60
2022-12-26T06:10:31.234Z,3.50
2022-12-26T06:15:31.585Z,4.00
2022-12-26T06:20:31.690Z,3.30
2022-12-26T06:25:29.950Z,4.00
2022-12-26T06:30:30.241Z,5.40
2022-12-26T06:35:28.538Z,5.00
2022-12-26T06:40:28.849Z,4.70
2022-12-26T06:45:28.148Z,5.40
2022-12-26T06:50:27.434Z,5.60
2022-12-26T06:55:25.630Z,5.10
2022-12-26T07:00:24.881Z,5.40
2022-12-26T07:05:24.058Z,5.20
2022-12-26T07:10:25.241Z,4.70
2022-12-26T07:15:23.479Z,4.70
2022-12-26T07:20:21.662Z,5.40
2022-12-26T07:25:20.855Z,4.40
2022-12-26T07:30:20.080Z,4.80
2022-12-26T07:35:19.280Z,5.20
2022-12-26T07:40:19.494Z,4.30
2022-12-26T07:45:18.751Z,3.90
2022-12-26T07:50:16.950Z,3.60
2022-12-26T07:55:17.137Z,4.10
2022-12-26T08:00:16.354Z,3.70
2022-12-26T08:05:14.600Z,3.50
2022-12-26T08:10:14.802Z,4.00
2022-12-26T08:15:32.010Z,3.80
2022-12-26T08:20:16.217Z,3.20
2022-12-26T08:25:16.716Z,3.60
2022-12-26T08:30:11.670Z,4.00
2022-12-26T08:35:09.978Z,3.50
2022-12-26T08:40:10.284Z,2.80
2022-12-26T08:45:08.579Z,3.40
2022-12-26T08:50:07.863Z,2.80
2022-12-26T08:55:07.167Z,2.80
2022-12-26T09:00:10.587Z,2.10
2022-12-26T09:05:06.663Z,2.50
2022-12-26T09:10:05.994Z,2.80
2022-12-26T09:15:05.301Z,2.00
2022-12-26T09:20:03.609Z,2.30
2022-12-26T09:25:02.976Z,2.40
2022-12-26T09:30:02.076Z,1.80
2022-12-26T09:35:02.388Z,2.10
2022-12-26T09:39:59.708Z,1.30
2022-12-26T09:45:00.937Z,1.60
2022-12-26T09:49:59.071Z,2.30
2022-12-26T09:54:58.202Z,1.60
2022-12-26T09:59:58.531Z,1.50
2022-12-26T10:04:56.918Z,1.30
2022-12-26T10:09:58.037Z,1.50
2022-12-26T10:14:55.367Z,1.60
2022-12-26T10:19:54.631Z,3.50
2022-12-26T10:24:53.741Z,3.90
2022-12-26T10:29:55.065Z,1.60
2022-12-26T10:34:54.364Z,2.00
2022-12-26T10:39:51.647Z,1.40
2022-12-26T10:44:51.985Z,1.90
2022-12-26T10:49:50.286Z,0.90
2022-12-26T10:54:50.597Z,1.30
2022-12-26T10:59:48.839Z,1.40
2022-12-26T11:05:15.585Z,1.30
2022-12-26T11:09:47.130Z,1.30
2022-12-26T11:14:46.428Z,1.50
2022-12-26T11:19:45.743Z,1.80
2022-12-26T11:24:45.058Z,2.10
2022-12-26T11:29:46.366Z,1.60
2022-12-26T11:34:43.635Z,1.40
2022-12-26T11:39:42.931Z,2.30
2022-12-26T11:44:43.242Z,1.80
2022-12-26T11:49:42.529Z,4.90
2022-12-26T11:54:40.810Z,102.00
2022-12-26T11:59:41.129Z,84.70
2022-12-26T12:04:40.362Z,83.40
2022-12-26T12:09:39.655Z,182.40
2022-12-26T12:14:38.986Z,179.70
2022-12-26T12:19:37.288Z,94.20
2022-12-26T12:24:36.410Z,152.40
2022-12-26T12:29:35.715Z,207.20
2022-12-26T12:34:34.851Z,132.10
2022-12-26T12:39:35.159Z,105.20
2022-12-26T12:44:33.468Z,72.20
2022-12-26T12:49:51.764Z,60.70
2022-12-26T12:54:32.977Z,41.10
2022-12-26T12:59:30.284Z,64.60
2022-12-26T13:04:30.582Z,45.80
2022-12-26T13:09:30.885Z,61.70
2022-12-26T13:14:29.298Z,31.20
2022-12-26T13:19:29.424Z,46.20
2022-12-26T13:24:28.746Z,54.90
2022-12-26T13:29:27.045Z,53.60
2022-12-26T13:34:26.381Z,44.80
2022-12-26T13:39:26.499Z,32.30
2022-12-26T13:44:25.793Z,26.40
2022-12-26T13:49:24.145Z,19.00
2022-12-26T13:54:23.313Z,18.80
2022-12-26T13:59:24.625Z,13.90
2022-12-26T14:04:22.854Z,28.80
2022-12-26T14:09:22.090Z,24.20
2022-12-26T14:14:21.288Z,16.20
2022-12-26T14:19:20.489Z,33.40
2022-12-26T14:24:19.672Z,22.50
2022-12-26T14:29:17.881Z,12.30
2022-12-26T14:34:17.064Z,14.10
2022-12-26T14:39:16.266Z,12.90
2022-12-26T14:44:17.464Z,9.90
2022-12-26T14:49:14.640Z,12.50
2022-12-26T14:54:13.843Z,9.20
2022-12-26T14:59:14.055Z,12.80
2022-12-26T15:04:12.212Z,6.00
2022-12-26T15:09:11.387Z,6.90
2022-12-26T15:14:10.535Z,11.60
2022-12-26T15:19:10.969Z,70.60
2022-12-26T15:24:09.910Z,129.70
2022-12-26T15:29:10.096Z,163.20
2022-12-26T15:34:06.274Z,190.90
2022-12-26T15:39:07.445Z,153.40
2022-12-26T15:44:05.606Z,136.00
2022-12-26T15:49:05.819Z,121.50
2022-12-26T15:54:04.959Z,171.30
2022-12-26T15:59:09.159Z,207.80
2022-12-26T16:04:02.321Z,171.40
2022-12-26T16:09:03.685Z,118.20
2022-12-26T16:14:15.628Z,194.20
2022-12-26T16:19:00.924Z,184.70
2022-12-26T16:24:01.134Z,148.10
2022-12-26T16:28:58.287Z,175.70
2022-12-26T16:33:57.461Z,182.90
2022-12-26T16:38:58.645Z,338.20
2022-12-26T16:43:55.792Z,115.30
2022-12-26T16:48:55.998Z,91.20
2022-12-26T16:53:54.212Z,100.40
2022-12-26T16:58:54.573Z,46.30
2022-12-26T17:03:52.578Z,65.10
2022-12-26T17:08:51.782Z,48.30
2022-12-26T17:13:51.013Z,71.10
2022-12-26T17:18:49.202Z,60.30
2022-12-26T17:23:49.402Z,34.70
2022-12-26T17:28:48.609Z,50.00
2022-12-26T17:33:48.798Z,54.80
2022-12-26T17:38:47.985Z,51.20
2022-12-26T17:43:46.386Z,41.30
2022-12-26T17:48:46.414Z,31.80
2022-12-26T17:53:44.693Z,23.00
2022-12-26T17:58:43.922Z,31.80
2022-12-26T18:03:43.110Z,31.30
2022-12-26T18:08:43.506Z,29.40
2022-12-26T18:13:43.635Z,29.00
2022-12-26T18:18:42.979Z,27.00
2022-12-26T18:23:39.989Z,24.50
2022-12-26T18:28:39.174Z,25.30
2022-12-26T18:33:38.467Z,20.20
2022-12-26T18:38:38.874Z,25.20
2022-12-26T18:43:36.906Z,16.90
2022-12-26T18:48:35.049Z,13.00
2022-12-26T18:53:35.284Z,21.20
2022-12-26T18:58:34.467Z,16.70
2022-12-26T19:03:33.666Z,20.60
2022-12-26T19:08:32.879Z,21.20
2022-12-26T19:13:32.058Z,20.20
2022-12-26T19:18:32.442Z,19.40
2022-12-26T19:23:30.482Z,13.20
2022-12-26T19:28:30.812Z,18.00
2022-12-26T19:33:29.838Z,137.50
2022-12-26T19:38:28.049Z,177.60
2022-12-26T19:43:26.241Z,225.90
2022-12-26T19:48:27.458Z,303.70
2022-12-26T19:53:25.646Z,386.70
2022-12-26T19:58:26.862Z,197.70
2022-12-26T20:03:24.290Z,285.40
2022-12-26T20:08:23.324Z,316.30
2022-12-26T20:13:22.585Z,384.20
2022-12-26T20:18:21.928Z,354.60
2022-12-26T20:23:20.926Z,250.70
2022-12-26T20:28:20.107Z,321.60
2022-12-26T20:33:20.273Z,219.20
2022-12-26T20:38:19.473Z,295.00
2022-12-26T20:43:17.634Z,362.50
2022-12-26T20:48:16.825Z,395.60
2022-12-26T20:53:16.989Z,333.30
2022-12-26T20:58:18.128Z,149.70
2022-12-26T21:03:14.622Z,299.50
2022-12-26T21:08:14.037Z,262.30
2022-12-26T21:13:13.071Z,239.60
2022-12-26T21:18:12.244Z,208.80
2022-12-26T21:23:13.648Z,248.60
2022-12-26T21:28:12.682Z,133.10
2022-12-26T21:33:09.886Z,118.80
2022-12-26T21:38:11.096Z,254.80
2022-12-26T21:43:08.281Z,331.80
2022-12-26T21:48:08.476Z,341.10
2022-12-26T21:53:07.660Z,227.00
2022-12-26T21:58:05.850Z,208.10
2022-12-26T22:03:06.053Z,301.70
2022-12-26T22:08:04.281Z,224.70
2022-12-26T22:13:04.519Z,188.00
2022-12-26T22:18:02.690Z,112.60
2022-12-26T22:23:01.878Z,115.90
2022-12-26T22:28:02.041Z,199.90
2022-12-26T22:33:00.200Z,195.70
2022-12-26T22:38:00.377Z,195.70
2022-12-26T22:42:58.551Z,103.70
2022-12-26T22:47:56.745Z,57.70
2022-12-26T22:52:57.914Z,60.90
2022-12-26T22:58:00.680Z,103.40
2022-12-26T23:02:56.514Z,62.50
2022-12-26T23:07:54.615Z,61.50
2022-12-26T23:12:53.784Z,144.80
2022-12-26T23:17:52.963Z,134.50
2022-12-26T23:22:52.133Z,117.00
2022-12-26T23:27:51.315Z,97.40
2022-12-26T23:32:50.494Z,111.30
2022-12-26T23:37:49.676Z,139.40
2022-12-26T23:42:48.882Z,66.70
2022-12-26T23:47:48.061Z,58.50
2022-12-26T23:52:47.247Z,188.30
2022-12-26T23:57:46.388Z,184.70
